Time;durP1;ratioP1;P1;durP2;ratioP2;P2;SDS_P1;SDS_P2;PMS_P1;PMS_P2;Temp;Humidity;BMP_temperature;BMP_pressure;BME280_temperature;BME280_humidity;BME280_pressure;Samples;Min_cycle;Max_cycle;Signal;HPM_P1;HPM_P2
2021/09/15 00:02:06;;;;;;;10.00;7.40;;;;;;;;;;5049669;28;20290;-68
2021/09/15 00:04:32;;;;;;;9.43;6.90;;;;;;;;;;5052028;28;20017;-67
2021/09/15 00:06:57;;;;;;;11.27;7.05;;;;;;;;;;5051717;28;20036;-65
2021/09/15 00:09:22;;;;;;;12.00;7.07;;;;;;;;;;5051611;28;20425;-67
2021/09/15 00:11:47;;;;;;;12.33;7.83;;;;;;;;;;5050095;28;20021;-65
2021/09/15 00:14:12;;;;;;;10.33;7.07;;;;;;;;;;5045296;28;20299;-66
2021/09/15 00:16:38;;;;;;;12.95;8.65;;;;;;;;;;5051423;28;20283;-66
2021/09/15 00:19:03;;;;;;;11.73;7.37;;;;;;;;;;5051326;28;20370;-65
2021/09/15 00:21:29;;;;;;;14.68;7.03;;;;;;;;;;5051656;28;20291;-65
2021/09/15 00:23:54;;;;;;;11.68;7.90;;;;;;;;;;5050773;28;20059;-65
2021/09/15 00:26:20;;;;;;;12.48;7.07;;;;;;;;;;5052000;28;20063;-65
2021/09/15 00:28:45;;;;;;;8.40;6.40;;;;;;;;;;5046978;28;20024;-65
2021/09/15 00:31:10;;;;;;;14.07;8.47;;;;;;;;;;5051470;28;20028;-67
2021/09/15 00:33:35;;;;;;;12.30;6.95;;;;;;;;;;5050966;28;20271;-66
2021/09/15 00:36:00;;;;;;;10.87;7.80;;;;;;;;;;5051788;28;20555;-67
2021/09/15 00:38:25;;;;;;;10.33;7.77;;;;;;;;;;5050911;28;20289;-67
2021/09/15 00:40:51;;;;;;;13.47;7.43;;;;;;;;;;5050912;28;20025;-65
2021/09/15 00:43:16;;;;;;;13.43;8.13;;;;;;;;;;5050651;28;20291;-65
2021/09/15 00:45:41;;;;;;;13.20;7.33;;;;;;;;;;5051539;28;20063;-65
2021/09/15 00:48:06;;;;;;;12.77;7.57;;;;;;;;;;5046789;28;20759;-65
2021/09/15 00:50:31;;;;;;;12.17;7.03;;;;;;;;;;5050738;28;20322;-65
2021/09/15 00:52:57;;;;;;;10.68;6.97;;;;;;;;;;5050071;28;20320;-66
2021/09/15 00:55:22;;;;;;;7.80;7.00;;;;;;;;;;5051197;28;20059;-66
2021/09/15 00:57:47;;;;;;;9.48;7.45;;;;;;;;;;5045825;28;20409;-66
2021/09/15 01:00:12;;;;;;;12.23;8.40;;;;;;;;;;5036340;28;20108;-65
2021/09/15 01:02:38;;;;;;;11.38;7.47;;;;;;;;;;5041249;28;20767;-65
2021/09/15 01:05:03;;;;;;;14.73;8.20;;;;;;;;;;5032617;28;20065;-66
2021/09/15 01:07:28;;;;;;;11.85;8.07;;;;;;;;;;5046771;28;20033;-65
2021/09/15 01:09:54;;;;;;;10.93;7.30;;;;;;;;;;5047833;28;20529;-66
2021/09/15 01:12:19;;;;;;;9.40;7.40;;;;;;;;;;5047644;28;20743;-65
2021/09/15 01:14:44;;;;;;;15.60;8.20;;;;;;;;;;5045285;28;20130;-67
2021/09/15 01:17:10;;;;;;;10.70;7.20;;;;;;;;;;5046309;28;20167;-65
2021/09/15 01:19:35;;;;;;;8.65;7.63;;;;;;;;;;5047688;28;20065;-66
2021/09/15 01:22:00;;;;;;;10.50;7.80;;;;;;;;;;5043659;28;20537;-65
2021/09/15 01:24:27;;;;;;;13.15;7.47;;;;;;;;;;5043066;28;20031;-65
2021/09/15 01:26:52;;;;;;;11.93;8.20;;;;;;;;;;5048371;28;20172;-65
2021/09/15 01:29:19;;;;;;;16.30;8.77;;;;;;;;;;5046956;28;20388;-66
2021/09/15 01:31:53;;;;;;;11.10;8.20;;;;;;;;;;5047199;28;20033;-65
2021/09/15 01:34:19;;;;;;;14.38;8.50;;;;;;;;;;5032630;28;20024;-64
2021/09/15 01:36:44;;;;;;;14.00;8.63;;;;;;;;;;5042446;28;20029;-66
2021/09/15 01:39:09;;;;;;;11.38;8.38;;;;;;;;;;5039387;28;20260;-65
2021/09/15 01:41:34;;;;;;;11.57;8.30;;;;;;;;;;5040246;28;20032;-66
2021/09/15 01:43:59;;;;;;;18.63;8.27;;;;;;;;;;5049862;28;20259;-64
2021/09/15 01:46:25;;;;;;;10.80;8.00;;;;;;;;;;5050055;28;20021;-66
2021/09/15 01:48:50;;;;;;;14.57;7.85;;;;;;;;;;5049969;28;20334;-67
2021/09/15 01:51:15;;;;;;;13.27;7.33;;;;;;;;;;5034093;28;20045;-66
2021/09/15 01:53:40;;;;;;;13.30;8.00;;;;;;;;;;5047884;28;20272;-65
2021/09/15 01:56:05;;;;;;;12.10;8.00;;;;;;;;;;5050197;28;20017;-65
2021/09/15 01:58:31;;;;;;;12.13;8.20;;;;;;;;;;5049394;28;20028;-65
2021/09/15 02:00:56;;;;;;;12.50;8.93;;;;;;;;;;5049579;28;20267;-65
2021/09/15 02:03:21;;;;;;;14.30;8.57;;;;;;;;;;5049768;28;20291;-65
2021/09/15 02:05:46;;;;;;;17.43;8.80;;;;;;;;;;5050145;28;20763;-66
2021/09/15 02:08:11;;;;;;;15.30;9.13;;;;;;;;;;5050279;28;20343;-65
2021/09/15 02:10:36;;;;;;;11.87;8.80;;;;;;;;;;5049932;28;20628;-67
2021/09/15 02:13:01;;;;;;;18.77;8.80;;;;;;;;;;5049825;28;20287;-64
2021/09/15 02:15:27;;;;;;;15.17;8.40;;;;;;;;;;5050089;28;20313;-68
2021/09/15 02:17:52;;;;;;;14.40;8.10;;;;;;;;;;5050034;28;20766;-65
2021/09/15 02:20:17;;;;;;;15.57;7.87;;;;;;;;;;5050175;28;20056;-66
2021/09/15 02:22:42;;;;;;;14.87;8.90;;;;;;;;;;5050386;28;20033;-65
2021/09/15 02:25:08;;;;;;;19.10;8.68;;;;;;;;;;5053466;28;20248;-67
2021/09/15 02:27:33;;;;;;;17.33;9.27;;;;;;;;;;5054061;28;20425;-65
2021/09/15 02:29:59;;;;;;;14.80;9.00;;;;;;;;;;5053488;28;20039;-64
2021/09/15 02:32:24;;;;;;;20.70;8.77;;;;;;;;;;5054026;28;20028;-65
2021/09/15 02:34:49;;;;;;;12.43;9.07;;;;;;;;;;5053641;28;20294;-65
2021/09/15 02:37:15;;;;;;;11.13;7.90;;;;;;;;;;5053629;28;20496;-65
2021/09/15 02:39:40;;;;;;;14.43;9.25;;;;;;;;;;5053436;28;20264;-65
2021/09/15 02:42:05;;;;;;;15.67;9.33;;;;;;;;;;5053559;28;20482;-65
2021/09/15 02:44:31;;;;;;;15.30;8.30;;;;;;;;;;5053798;28;20255;-65
2021/09/15 02:46:56;;;;;;;11.20;7.97;;;;;;;;;;5053394;28;20496;-67
2021/09/15 02:49:27;;;;;;;11.47;8.53;;;;;;;;;;5053405;28;20263;-66
2021/09/15 02:51:52;;;;;;;13.60;8.77;;;;;;;;;;5053297;28;20325;-66
2021/09/15 02:54:17;;;;;;;12.43;8.20;;;;;;;;;;5053399;28;20025;-65
2021/09/15 02:56:42;;;;;;;15.10;9.10;;;;;;;;;;5053336;28;20768;-67
2021/09/15 02:59:07;;;;;;;13.57;9.47;;;;;;;;;;5053629;28;20048;-65
2021/09/15 03:01:32;;;;;;;15.63;9.80;;;;;;;;;;5053654;28;20646;-68
2021/09/15 03:03:58;;;;;;;15.25;8.93;;;;;;;;;;5047874;28;20283;-65
2021/09/15 03:06:23;;;;;;;10.33;7.80;;;;;;;;;;5053027;28;20033;-67
2021/09/15 03:08:48;;;;;;;19.23;9.03;;;;;;;;;;5052839;28;20267;-64
2021/09/15 03:11:13;;;;;;;17.17;8.20;;;;;;;;;;5053262;28;20473;-67
2021/09/15 03:13:38;;;;;;;13.30;8.30;;;;;;;;;;5052644;28;20272;-65
2021/09/15 03:16:04;;;;;;;13.30;8.97;;;;;;;;;;5053083;28;20263;-66
2021/09/15 03:18:29;;;;;;;14.52;9.32;;;;;;;;;;5052272;28;20952;-66
2021/09/15 03:20:54;;;;;;;14.30;8.70;;;;;;;;;;5052554;28;20020;-67
2021/09/15 03:23:19;;;;;;;14.63;9.10;;;;;;;;;;5051901;28;20528;-66
2021/09/15 03:25:44;;;;;;;12.97;9.40;;;;;;;;;;5052496;28;20347;-66
2021/09/15 03:28:09;;;;;;;13.87;9.90;;;;;;;;;;5053181;28;20655;-66
2021/09/15 03:30:35;;;;;;;21.43;9.63;;;;;;;;;;5052246;28;20325;-66
2021/09/15 03:33:00;;;;;;;16.37;9.93;;;;;;;;;;5052513;28;20279;-65
2021/09/15 03:35:25;;;;;;;18.40;9.67;;;;;;;;;;5048387;28;20618;-67
2021/09/15 03:37:50;;;;;;;16.27;9.18;;;;;;;;;;5051472;28;20299;-66
2021/09/15 03:40:15;;;;;;;15.87;10.47;;;;;;;;;;5052559;28;20079;-66
2021/09/15 03:42:40;;;;;;;19.17;10.03;;;;;;;;;;5052173;28;20271;-67
2021/09/15 03:45:06;;;;;;;16.80;9.77;;;;;;;;;;5052577;28;20774;-68
2021/09/15 03:47:31;;;;;;;16.00;10.48;;;;;;;;;;5052673;28;20264;-67
2021/09/15 03:49:56;;;;;;;13.00;10.33;;;;;;;;;;5051394;28;20033;-66
2021/09/15 03:52:22;;;;;;;13.73;10.02;;;;;;;;;;5051490;28;20267;-64
2021/09/15 03:54:47;;;;;;;16.10;10.27;;;;;;;;;;5051474;28;20052;-65
2021/09/15 03:57:12;;;;;;;16.10;10.80;;;;;;;;;;5052242;28;20025;-66
2021/09/15 03:59:37;;;;;;;14.57;10.38;;;;;;;;;;5049306;28;20051;-66
2021/09/15 04:02:02;;;;;;;17.93;11.33;;;;;;;;;;5051964;28;20122;-65
2021/09/15 04:04:27;;;;;;;18.05;11.07;;;;;;;;;;5051643;28;20262;-66
2021/09/15 04:06:53;;;;;;;22.83;12.23;;;;;;;;;;5051385;28;20464;-66
2021/09/15 04:09:18;;;;;;;16.67;10.50;;;;;;;;;;5052041;28;20294;-66
2021/09/15 04:11:43;;;;;;;15.90;11.63;;;;;;;;;;5051773;28;20279;-68
2021/09/15 04:14:08;;;;;;;17.23;11.23;;;;;;;;;;5051755;28;20021;-66
2021/09/15 04:16:33;;;;;;;15.70;11.25;;;;;;;;;;5051623;28;20035;-66
2021/09/15 04:18:59;;;;;;;19.53;11.03;;;;;;;;;;5051596;28;20467;-65
2021/09/15 04:21:24;;;;;;;15.30;11.30;;;;;;;;;;5051683;28;20370;-65
2021/09/15 04:24:02;;;;;;;20.23;11.95;;;;;;;;;;5051135;28;20048;-66
2021/09/15 04:31:55;;;;;;;21.63;12.73;;;;;;;;;;5051999;28;20031;-68
2021/09/15 04:34:20;;;;;;;18.05;12.45;;;;;;;;;;5051445;28;20017;-67
2021/09/15 04:36:45;;;;;;;15.20;11.37;;;;;;;;;;5051216;28;20021;-68
2021/09/15 04:39:10;;;;;;;16.83;11.70;;;;;;;;;;5051410;28;20914;-67
2021/09/15 04:41:36;;;;;;;20.03;12.53;;;;;;;;;;5050505;28;20350;-66
2021/09/15 04:44:01;;;;;;;18.80;12.38;;;;;;;;;;5050144;28;20337;-67
2021/09/15 04:46:27;;;;;;;22.40;12.48;;;;;;;;;;5051312;28;20111;-66
2021/09/15 04:48:52;;;;;;;18.33;13.13;;;;;;;;;;5050994;28;20053;-67
2021/09/15 04:51:17;;;;;;;26.60;12.77;;;;;;;;;;5050867;28;20301;-66
2021/09/15 04:53:42;;;;;;;23.60;13.57;;;;;;;;;;5050632;28;20271;-66
2021/09/15 04:56:07;;;;;;;16.43;12.73;;;;;;;;;;5051118;28;20268;-66
2021/09/15 04:58:32;;;;;;;18.65;11.68;;;;;;;;;;5049582;28;20775;-68
2021/09/15 05:00:58;;;;;;;20.33;12.02;;;;;;;;;;5051094;28;20044;-66
2021/09/15 05:03:23;;;;;;;23.27;13.75;;;;;;;;;;5050334;28;20270;-66
2021/09/15 05:05:48;;;;;;;22.20;11.93;;;;;;;;;;5050488;28;20051;-65
2021/09/15 05:08:13;;;;;;;18.38;12.27;;;;;;;;;;5050452;28;20021;-67
2021/09/15 05:10:39;;;;;;;16.90;12.30;;;;;;;;;;5049834;28;20025;-65
2021/09/15 05:13:04;;;;;;;16.60;11.13;;;;;;;;;;5050310;28;20320;-67
2021/09/15 05:15:29;;;;;;;18.38;11.55;;;;;;;;;;5050285;28;20632;-66
2021/09/15 05:17:55;;;;;;;16.10;12.10;;;;;;;;;;5050641;28;20033;-65
2021/09/15 05:20:20;;;;;;;15.65;11.05;;;;;;;;;;5050169;28;20282;-65
2021/09/15 05:22:46;;;;;;;13.40;8.63;;;;;;;;;;5050384;28;20025;-66
2021/09/15 05:25:15;;;;;;;17.98;11.23;;;;;;;;;;5050247;28;20021;-65
2021/09/15 05:27:41;;;;;;;19.13;11.85;;;;;;;;;;5050601;28;20468;-65
2021/09/15 05:30:06;;;;;;;14.63;10.38;;;;;;;;;;5049782;28;20068;-67
2021/09/15 05:32:32;;;;;;;18.92;11.98;;;;;;;;;;5049817;28;20023;-66
2021/09/15 05:34:57;;;;;;;22.65;10.52;;;;;;;;;;5049708;28;20033;-65
2021/09/15 05:37:22;;;;;;;17.13;12.00;;;;;;;;;;5050371;28;20047;-66
2021/09/15 05:39:47;;;;;;;20.47;11.80;;;;;;;;;;5049616;28;20025;-66
2021/09/15 05:42:12;;;;;;;21.10;11.93;;;;;;;;;;5049883;28;20364;-66
2021/09/15 05:44:37;;;;;;;21.77;11.17;;;;;;;;;;5050392;28;20267;-66
2021/09/15 05:47:03;;;;;;;18.77;11.20;;;;;;;;;;5048586;28;20290;-66
2021/09/15 05:49:28;;;;;;;19.95;11.50;;;;;;;;;;5043204;28;20421;-65
2021/09/15 05:51:53;;;;;;;14.93;11.70;;;;;;;;;;5047652;28;20032;-66
2021/09/15 05:54:18;;;;;;;21.30;12.60;;;;;;;;;;5049550;28;20263;-66
2021/09/15 05:56:43;;;;;;;22.03;12.47;;;;;;;;;;5049490;28;20302;-67
2021/09/15 05:59:09;;;;;;;17.13;12.10;;;;;;;;;;5049663;28;20748;-66
2021/09/15 06:01:34;;;;;;;19.37;12.97;;;;;;;;;;5050128;28;20271;-65
2021/09/15 06:03:59;;;;;;;18.43;13.17;;;;;;;;;;5049926;28;20325;-66
2021/09/15 06:06:24;;;;;;;18.23;12.20;;;;;;;;;;5049984;28;20286;-67
2021/09/15 06:08:49;;;;;;;18.37;11.37;;;;;;;;;;5050139;28;20028;-67
2021/09/15 06:11:15;;;;;;;21.17;10.97;;;;;;;;;;5048509;28;20721;-68
2021/09/15 06:13:40;;;;;;;21.60;11.83;;;;;;;;;;5049191;28;20263;-67
2021/09/15 06:16:06;;;;;;;24.80;12.48;;;;;;;;;;5049891;28;20260;-67
2021/09/15 06:18:32;;;;;;;18.48;11.65;;;;;;;;;;5050029;28;20385;-65
2021/09/15 06:20:58;;;;;;;18.10;12.02;;;;;;;;;;5049865;28;20354;-66
2021/09/15 06:23:23;;;;;;;17.20;12.20;;;;;;;;;;5049512;28;20074;-65
2021/09/15 06:25:48;;;;;;;20.77;12.43;;;;;;;;;;5049733;28;20013;-66
2021/09/15 06:28:14;;;;;;;20.13;13.17;;;;;;;;;;5050014;28;20631;-67
2021/09/15 06:30:40;;;;;;;18.75;11.60;;;;;;;;;;5049611;28;20755;-66
2021/09/15 06:33:06;;;;;;;17.95;10.85;;;;;;;;;;5047610;28;20029;-66
2021/09/15 06:35:31;;;;;;;20.02;13.10;;;;;;;;;;5049609;28;20021;-67
2021/09/15 06:37:56;;;;;;;17.57;11.17;;;;;;;;;;5037533;28;20028;-66
2021/09/15 06:40:21;;;;;;;19.83;12.57;;;;;;;;;;5039351;28;20738;-66
2021/09/15 06:42:46;;;;;;;27.58;14.18;;;;;;;;;;5043654;28;20429;-66
2021/09/15 06:45:12;;;;;;;19.37;11.37;;;;;;;;;;5048951;28;20024;-67
2021/09/15 06:47:41;;;;;;;20.83;11.67;;;;;;;;;;5048538;28;20029;-66
2021/09/15 06:50:07;;;;;;;15.35;9.70;;;;;;;;;;5047789;28;20350;-66
2021/09/15 06:52:32;;;;;;;17.30;8.27;;;;;;;;;;5045344;28;20100;-67
2021/09/15 06:54:57;;;;;;;16.77;9.77;;;;;;;;;;5042214;28;20029;-66
2021/09/15 06:57:22;;;;;;;19.13;10.60;;;;;;;;;;5049011;28;20322;-66
2021/09/15 06:59:48;;;;;;;21.10;14.47;;;;;;;;;;5049706;28;20036;-65
2021/09/15 07:02:13;;;;;;;18.67;10.90;;;;;;;;;;5049110;28;20359;-65
2021/09/15 07:04:38;;;;;;;17.83;12.60;;;;;;;;;;5049487;28;20029;-65
2021/09/15 07:07:03;;;;;;;17.98;11.15;;;;;;;;;;5049138;28;20276;-65
2021/09/15 07:09:30;;;;;;;15.70;11.17;;;;;;;;;;5051326;28;20029;-66
2021/09/15 07:11:55;;;;;;;16.02;8.98;;;;;;;;;;5052714;28;20075;-65
2021/09/15 07:14:20;;;;;;;20.77;12.53;;;;;;;;;;5052406;28;20020;-66
2021/09/15 07:16:45;;;;;;;21.67;12.60;;;;;;;;;;5052492;28;20287;-65
2021/09/15 07:19:11;;;;;;;17.63;11.97;;;;;;;;;;5051612;28;20358;-66
2021/09/15 07:21:36;;;;;;;13.05;8.43;;;;;;;;;;5048364;28;20640;-66
2021/09/15 07:24:05;;;;;;;14.82;11.13;;;;;;;;;;5044741;28;20482;-66
2021/09/15 07:26:30;;;;;;;21.52;6.03;;;;;;;;;;5043775;28;20020;-66
2021/09/15 07:28:55;;;;;;;18.77;8.63;;;;;;;;;;5052359;28;20033;-65
2021/09/15 07:31:20;;;;;;;14.30;6.13;;;;;;;;;;5052921;28;20053;-65
2021/09/15 07:33:46;;;;;;;18.67;10.70;;;;;;;;;;5052593;28;20702;-66
2021/09/15 07:36:11;;;;;;;13.43;8.38;;;;;;;;;;5052847;28;20481;-65
2021/09/15 07:38:36;;;;;;;19.05;10.13;;;;;;;;;;5052878;28;20035;-66
2021/09/15 07:41:02;;;;;;;16.67;9.50;;;;;;;;;;5051526;28;20866;-65
2021/09/15 07:43:27;;;;;;;16.05;9.02;;;;;;;;;;5052327;28;20029;-66
2021/09/15 07:45:52;;;;;;;18.10;8.23;;;;;;;;;;5052247;28;20100;-66
2021/09/15 07:48:17;;;;;;;18.35;10.13;;;;;;;;;;5052633;28;20263;-65
2021/09/15 07:50:42;;;;;;;13.30;6.00;;;;;;;;;;5051916;28;20068;-65
2021/09/15 07:53:08;;;;;;;10.80;5.80;;;;;;;;;;5048790;28;20037;-66
2021/09/15 07:55:34;;;;;;;15.73;7.63;;;;;;;;;;5052076;28;20023;-65
2021/09/15 07:57:59;;;;;;;9.00;5.53;;;;;;;;;;5050641;28;20279;-65
2021/09/15 08:00:24;;;;;;;12.13;6.30;;;;;;;;;;5052631;28;20016;-66
2021/09/15 08:02:49;;;;;;;15.33;7.40;;;;;;;;;;5052148;28;20869;-65
2021/09/15 08:05:15;;;;;;;6.07;4.40;;;;;;;;;;5052585;28;20275;-65
2021/09/15 08:07:40;;;;;;;10.73;6.88;;;;;;;;;;5052094;28;20329;-66
2021/09/15 08:10:06;;;;;;;12.87;8.27;;;;;;;;;;5051445;28;20108;-66
2021/09/15 08:12:31;;;;;;;11.95;6.53;;;;;;;;;;5051708;28;20263;-66
2021/09/15 08:14:56;;;;;;;11.57;7.10;;;;;;;;;;5052337;28;20112;-65
2021/09/15 08:17:21;;;;;;;17.23;6.80;;;;;;;;;;5052091;28;20078;-66
2021/09/15 08:19:47;;;;;;;21.42;7.43;;;;;;;;;;5051595;28;20278;-65
2021/09/15 08:22:12;;;;;;;9.48;5.38;;;;;;;;;;5051209;28;20427;-65
2021/09/15 08:24:37;;;;;;;13.13;7.20;;;;;;;;;;5051424;28;20025;-66
2021/09/15 08:27:02;;;;;;;13.88;7.20;;;;;;;;;;5051324;28;20738;-65
2021/09/15 08:29:27;;;;;;;10.30;7.32;;;;;;;;;;5051319;28;20029;-66
2021/09/15 08:31:53;;;;;;;11.80;7.20;;;;;;;;;;5047489;28;20033;-65
2021/09/15 08:34:18;;;;;;;14.10;8.03;;;;;;;;;;5045848;28;20358;-67
2021/09/15 08:36:43;;;;;;;13.57;6.60;;;;;;;;;;5051279;28;20306;-65
2021/09/15 08:39:08;;;;;;;11.03;6.90;;;;;;;;;;5051226;28;20031;-65
2021/09/15 08:41:33;;;;;;;9.30;6.60;;;;;;;;;;5051139;28;20750;-65
2021/09/15 08:43:58;;;;;;;16.07;7.20;;;;;;;;;;5050861;28;20276;-66
2021/09/15 08:46:24;;;;;;;9.77;5.77;;;;;;;;;;5049513;28;20274;-65
2021/09/15 08:48:49;;;;;;;11.77;6.25;;;;;;;;;;5043316;28;20013;-66
2021/09/15 08:51:16;;;;;;;12.02;6.63;;;;;;;;;;5045881;28;20021;-65
2021/09/15 08:53:42;;;;;;;10.52;6.40;;;;;;;;;;5041079;28;20059;-65
2021/09/15 08:56:08;;;;;;;12.82;6.95;;;;;;;;;;5047097;28;20017;-66
2021/09/15 08:58:33;;;;;;;12.55;6.55;;;;;;;;;;5048427;28;20040;-66
2021/09/15 09:01:18;;;;;;;9.23;5.60;;;;;;;;;;5046889;28;20044;-65
2021/09/15 09:03:44;;;;;;;11.45;5.75;;;;;;;;;;5041808;28;20025;-67
2021/09/15 09:06:11;;;;;;;9.27;5.47;;;;;;;;;;5050340;28;20021;-65
2021/09/15 09:08:43;;;;;;;9.88;5.50;;;;;;;;;;5047294;28;20025;-67
2021/09/15 09:11:09;;;;;;;9.13;5.13;;;;;;;;;;5043165;28;20112;-65
2021/09/15 09:13:35;;;;;;;8.27;4.75;;;;;;;;;;5041394;28;20116;-65
2021/09/15 09:16:00;;;;;;;9.27;2.80;;;;;;;;;;5042637;28;20369;-65
2021/09/15 09:18:25;;;;;;;4.22;2.72;;;;;;;;;;5040666;28;20146;-66
2021/09/15 09:20:51;;;;;;;13.52;4.13;;;;;;;;;;5042355;28;20035;-67
2021/09/15 09:23:17;;;;;;;6.27;4.07;;;;;;;;;;5038473;28;20112;-65
2021/09/15 09:25:43;;;;;;;5.10;3.08;;;;;;;;;;5041577;28;20784;-66
2021/09/15 09:28:16;;;;;;;9.23;3.65;;;;;;;;;;5038906;28;20021;-65
2021/09/15 09:30:42;;;;;;;18.25;4.22;;;;;;;;;;5042490;28;20100;-65
2021/09/15 09:33:07;;;;;;;5.82;2.63;;;;;;;;;;5046936;28;20115;-65
2021/09/15 09:35:39;;;;;;;7.90;3.60;;;;;;;;;;5042829;28;20104;-65
2021/09/15 09:38:14;;;;;;;10.45;4.05;;;;;;;;;;5039327;28;20489;-65
2021/09/15 09:40:51;;;;;;;9.60;3.95;;;;;;;;;;5041748;28;20030;-65
2021/09/15 09:43:16;;;;;;;9.05;3.83;;;;;;;;;;5042834;28;20662;-66
2021/09/15 09:45:48;;;;;;;6.60;2.33;;;;;;;;;;5040611;28;20037;-65
2021/09/15 09:48:28;;;;;;;12.02;4.35;;;;;;;;;;5041297;28;20738;-66
2021/09/15 09:50:53;;;;;;;11.73;4.45;;;;;;;;;;5040889;28;20024;-66
2021/09/15 09:53:19;;;;;;;10.30;3.47;;;;;;;;;;5041494;28;20013;-66
2021/09/15 09:55:44;;;;;;;12.47;4.23;;;;;;;;;;5042629;28;20616;-66
2021/09/15 09:58:10;;;;;;;8.48;3.38;;;;;;;;;;5041292;28;20767;-66
2021/09/15 10:00:37;;;;;;;7.82;3.75;;;;;;;;;;5041058;28;20091;-66
2021/09/15 10:03:02;;;;;;;8.40;3.95;;;;;;;;;;5045920;28;20081;-66
2021/09/15 10:05:28;;;;;;;6.60;3.53;;;;;;;;;;5039217;28;20021;-66
2021/09/15 10:07:53;;;;;;;10.10;4.35;;;;;;;;;;5046558;28;20025;-67
2021/09/15 10:10:20;;;;;;;12.00;4.30;;;;;;;;;;5039003;28;20013;-65
2021/09/15 10:12:46;;;;;;;17.42;4.55;;;;;;;;;;5041309;28;20044;-66
2021/09/15 10:15:11;;;;;;;11.88;4.85;;;;;;;;;;5041209;28;20021;-67
2021/09/15 10:17:39;;;;;;;9.38;4.30;;;;;;;;;;5045594;28;20021;-67
2021/09/15 10:20:08;;;;;;;13.07;4.25;;;;;;;;;;5044901;28;20017;-66
2021/09/15 10:22:34;;;;;;;8.20;5.03;;;;;;;;;;5046870;28;20040;-66
2021/09/15 10:25:04;;;;;;;8.57;4.35;;;;;;;;;;5043312;28;20017;-65
2021/09/15 10:27:31;;;;;;;11.48;5.18;;;;;;;;;;5042108;28;20029;-68
2021/09/15 10:30:00;;;;;;;6.60;4.22;;;;;;;;;;5040076;28;20032;-65
2021/09/15 10:32:33;;;;;;;11.18;4.95;;;;;;;;;;5040103;28;20024;-65
2021/09/15 10:34:58;;;;;;;14.00;5.57;;;;;;;;;;5040826;28;20029;-67
2021/09/15 10:37:23;;;;;;;8.13;3.83;;;;;;;;;;5040996;28;20106;-66
2021/09/15 10:39:55;;;;;;;10.35;4.22;;;;;;;;;;5043861;28;20097;-66
2021/09/15 10:42:38;;;;;;;10.60;3.97;;;;;;;;;;5037242;28;20048;-65
2021/09/15 10:45:13;;;;;;;12.02;5.72;;;;;;;;;;5041647;28;20044;-66
2021/09/15 10:47:43;;;;;;;9.95;3.72;;;;;;;;;;5047247;28;20553;-65
2021/09/15 10:50:08;;;;;;;13.30;4.00;;;;;;;;;;5041387;28;20028;-67
2021/09/15 10:52:35;;;;;;;11.23;3.28;;;;;;;;;;5047301;28;20082;-65
2021/09/15 10:55:00;;;;;;;13.60;3.78;;;;;;;;;;5046287;28;20043;-67
2021/09/15 10:57:29;;;;;;;7.40;4.10;;;;;;;;;;5047287;28;20481;-66
2021/09/15 11:00:10;;;;;;;6.07;3.35;;;;;;;;;;5046134;28;20052;-65
2021/09/15 11:02:36;;;;;;;6.28;4.03;;;;;;;;;;5041939;28;20029;-68
2021/09/15 11:05:20;;;;;;;9.95;4.10;;;;;;;;;;5043735;28;20458;-66
2021/09/15 11:07:45;;;;;;;13.02;4.68;;;;;;;;;;5047619;28;20108;-66
2021/09/15 11:10:13;;;;;;;10.45;4.30;;;;;;;;;;5047356;28;20435;-68
2021/09/15 11:12:43;;;;;;;12.75;4.63;;;;;;;;;;5044162;28;20490;-66
2021/09/15 11:15:23;;;;;;;10.82;4.53;;;;;;;;;;5045641;28;20033;-65
2021/09/15 11:17:48;;;;;;;8.50;4.57;;;;;;;;;;5040791;28;20018;-67
2021/09/15 11:20:13;;;;;;;10.17;4.00;;;;;;;;;;5044050;28;20025;-65
2021/09/15 11:22:38;;;;;;;9.07;4.80;;;;;;;;;;5045569;28;20279;-67
2021/09/15 11:25:04;;;;;;;12.70;4.63;;;;;;;;;;5046883;28;20298;-67
2021/09/15 11:27:29;;;;;;;10.68;5.57;;;;;;;;;;5045417;28;20256;-66
2021/09/15 11:29:55;;;;;;;16.37;4.70;;;;;;;;;;5044444;28;20029;-66
2021/09/15 11:32:20;;;;;;;9.93;5.53;;;;;;;;;;5047829;28;20087;-68
2021/09/15 11:34:50;;;;;;;17.77;5.10;;;;;;;;;;5042947;28;20052;-67
2021/09/15 11:37:22;;;;;;;12.02;6.15;;;;;;;;;;5043653;28;20025;-66
2021/09/15 11:39:52;;;;;;;22.88;6.22;;;;;;;;;;5043770;28;20021;-66
2021/09/15 11:42:20;;;;;;;21.20;6.90;;;;;;;;;;5046434;28;20462;-66
2021/09/15 11:44:45;;;;;;;17.33;7.53;;;;;;;;;;5045339;28;20025;-67
2021/09/15 11:47:10;;;;;;;19.30;7.07;;;;;;;;;;5045562;28;20029;-70
2021/09/15 11:49:35;;;;;;;19.90;7.77;;;;;;;;;;5045090;28;20305;-67
2021/09/15 11:52:01;;;;;;;16.80;6.07;;;;;;;;;;5045028;28;20362;-66
2021/09/15 11:54:27;;;;;;;13.77;4.93;;;;;;;;;;5044377;28;20044;-67
2021/09/15 11:56:54;;;;;;;16.73;4.78;;;;;;;;;;5044411;28;20067;-66
2021/09/15 11:59:20;;;;;;;18.63;6.05;;;;;;;;;;5045250;28;20370;-68
2021/09/15 12:01:46;;;;;;;10.20;5.78;;;;;;;;;;5040551;28;20428;-67
2021/09/15 12:04:15;;;;;;;14.80;6.15;;;;;;;;;;5045968;28;20534;-66
2021/09/15 12:06:41;;;;;;;13.45;5.53;;;;;;;;;;5043515;28;20041;-68
2021/09/15 12:09:08;;;;;;;19.63;7.88;;;;;;;;;;5045379;28;20017;-68
2021/09/15 12:11:34;;;;;;;13.68;6.85;;;;;;;;;;5044798;28;20428;-66
2021/09/15 12:14:00;;;;;;;16.48;7.35;;;;;;;;;;5040665;28;20071;-67
2021/09/15 12:16:30;;;;;;;15.68;7.53;;;;;;;;;;5042621;28;20560;-66
2021/09/15 12:18:55;;;;;;;20.42;9.43;;;;;;;;;;5045994;28;20036;-67
2021/09/15 12:21:21;;;;;;;21.95;10.93;;;;;;;;;;5046728;28;20398;-66
2021/09/15 12:23:46;;;;;;;20.38;11.80;;;;;;;;;;5043074;28;20025;-66
2021/09/15 12:26:12;;;;;;;21.98;14.27;;;;;;;;;;5045681;28;20017;-68
2021/09/15 12:28:37;;;;;;;18.88;12.60;;;;;;;;;;5042787;28;20033;-66
2021/09/15 12:31:06;;;;;;;15.23;10.05;;;;;;;;;;5040490;28;20370;-65
2021/09/15 12:33:38;;;;;;;17.48;8.57;;;;;;;;;;5040071;28;20025;-65
2021/09/15 12:36:19;;;;;;;10.93;7.43;;;;;;;;;;5040651;28;20021;-66
2021/09/15 12:38:45;;;;;;;18.65;9.40;;;;;;;;;;5037780;28;20599;-66
2021/09/15 12:41:10;;;;;;;19.88;10.70;;;;;;;;;;5044358;28;20103;-65
2021/09/15 12:43:35;;;;;;;23.80;13.57;;;;;;;;;;5042253;28;20021;-66
2021/09/15 12:46:00;;;;;;;19.23;11.97;;;;;;;;;;5045966;28;20278;-67
2021/09/15 12:48:25;;;;;;;23.23;13.77;;;;;;;;;;5042665;28;20280;-66
2021/09/15 12:51:01;;;;;;;24.70;14.83;;;;;;;;;;5122918;23;20079;-90
2021/09/15 12:53:44;;;;;;;23.30;13.10;;;;;;;;;;5068767;28;20028;-90
2021/09/15 12:56:26;;;;;;;;;;;;;;;;;;;;;
2021/09/15 12:59:06;;;;;;;21.92;13.82;;;;;;;;;;5077210;22;20049;-91
2021/09/15 13:02:14;;;;;;;;;;;;;;;;;;;;;
2021/09/15 13:04:40;;;;;;;24.73;14.13;;;;;;;;;;5025568;28;20033;-91
2021/09/15 13:07:14;;;;;;;27.23;15.65;;;;;;;;;;5010674;28;20041;-90
2021/09/15 13:10:00;;;;;;;21.20;13.55;;;;;;;;;;5036644;28;20095;-90
2021/09/15 13:12:26;;;;;;;28.50;14.40;;;;;;;;;;5031746;28;20021;-89
2021/09/15 13:15:03;;;;;;;22.42;15.07;;;;;;;;;;5030850;28;20018;-91
2021/09/15 13:17:31;;;;;;;26.10;14.00;;;;;;;;;;5027699;28;20124;-90
2021/09/15 13:22:55;;;;;;;25.38;16.63;;;;;;;;;;5015152;28;20025;-91
2021/09/15 13:25:24;;;;;;;30.92;17.05;;;;;;;;;;5025792;28;20044;-89
2021/09/15 13:27:49;;;;;;;34.70;18.43;;;;;;;;;;5029997;28;20030;-90
2021/09/15 13:30:21;;;;;;;31.85;21.48;;;;;;;;;;5027051;28;20295;-90
2021/09/15 13:32:49;;;;;;;53.80;28.67;;;;;;;;;;5026795;28;20033;-90
2021/09/15 13:38:09;;;;;;;45.15;29.08;;;;;;;;;;5015890;28;20056;-91
2021/09/15 13:40:34;;;;;;;45.22;28.10;;;;;;;;;;5029860;28;20473;-90
2021/09/15 13:42:59;;;;;;;40.10;24.00;;;;;;;;;;5031919;28;20069;-90
2021/09/15 13:45:25;;;;;;;35.53;21.60;;;;;;;;;;5030649;28;20021;-94
2021/09/15 13:47:50;;;;;;;25.52;17.45;;;;;;;;;;5034130;28;20022;-91
2021/09/15 13:50:25;;;;;;;29.70;18.55;;;;;;;;;;5033121;28;20112;-91
2021/09/15 13:53:19;;;;;;;29.48;19.25;;;;;;;;;;5036735;28;20097;-91
2021/09/15 13:55:57;;;;;;;32.30;19.95;;;;;;;;;;5030541;28;20037;-91
2021/09/15 13:58:44;;;;;;;33.00;20.80;;;;;;;;;;5031428;28;20029;-92
2021/09/15 14:01:18;;;;;;;25.60;17.95;;;;;;;;;;5027946;28;20037;-90
2021/09/15 14:03:50;;;;;;;25.75;15.85;;;;;;;;;;5029826;28;20104;-91
2021/09/15 14:06:35;;;;;;;30.63;16.23;;;;;;;;;;5028091;28;20045;-89
2021/09/15 14:09:00;;;;;;;22.10;14.32;;;;;;;;;;5020702;28;20599;-90
2021/09/15 14:11:26;;;;;;;23.27;15.93;;;;;;;;;;5027921;28;20120;-91
2021/09/15 14:13:51;;;;;;;31.27;16.48;;;;;;;;;;5023046;28;20026;-89
2021/09/15 14:16:20;;;;;;;21.98;15.00;;;;;;;;;;5027378;28;20025;-90
2021/09/15 14:18:58;;;;;;;;;;;;;;;;;;;;;
2021/09/15 14:21:27;;;;;;;23.95;15.80;;;;;;;;;;5036908;28;20672;-90
2021/09/15 14:23:52;;;;;;;23.60;16.08;;;;;;;;;;5035824;28;20021;-89
2021/09/15 14:26:17;;;;;;;22.83;14.65;;;;;;;;;;5029336;28;20091;-91
2021/09/15 14:28:43;;;;;;;19.48;13.82;;;;;;;;;;5028773;28;20664;-89
2021/09/15 14:31:08;;;;;;;22.43;15.33;;;;;;;;;;5029856;28;20053;-90
2021/09/15 14:33:33;;;;;;;24.30;13.88;;;;;;;;;;5031592;28;20358;-90
2021/09/15 14:35:59;;;;;;;17.50;13.45;;;;;;;;;;5029289;28;20019;-90
2021/09/15 14:38:24;;;;;;;20.10;13.43;;;;;;;;;;5029481;28;20021;-91